createdAt,value
2023-01-04T00:00:53.290Z,2.60
2023-01-04T00:01:56.542Z,2.20
2023-01-04T00:02:59.276Z,2.80
2023-01-04T00:04:02.599Z,2.40
2023-01-04T00:05:06.466Z,2.00
2023-01-04T00:06:12.028Z,1.90
2023-01-04T00:07:14.651Z,2.40
2023-01-04T00:08:16.946Z,2.10
2023-01-04T00:09:19.550Z,2.30
2023-01-04T00:10:24.832Z,0.36
2023-01-04T00:11:28.320Z,1.90
2023-01-04T00:12:30.711Z,3.00
2023-01-04T00:13:33.218Z,1.70
2023-01-04T00:14:36.528Z,2.20
2023-01-04T00:15:39.822Z,3.10
2023-01-04T00:16:42.928Z,2.30
2023-01-04T00:17:45.416Z,1.82
2023-01-04T00:18:48.213Z,2.60
2023-01-04T00:19:52.279Z,2.20
2023-01-04T00:20:55.464Z,2.60
2023-01-04T00:21:58.292Z,2.60
2023-01-04T00:23:00.656Z,2.20
2023-01-04T00:24:03.544Z,2.80
2023-01-04T00:25:07.831Z,3.09
2023-01-04T00:26:15.745Z,2.40
2023-01-04T00:27:18.129Z,2.60
2023-01-04T00:28:20.864Z,2.80
2023-01-04T00:29:24.171Z,2.00
2023-01-04T00:30:27.335Z,2.00
2023-01-04T00:31:30.137Z,2.82
2023-01-04T00:32:32.967Z,2.40
2023-01-04T00:33:35.531Z,2.60
2023-01-04T00:34:38.005Z,1.20
2023-01-04T00:35:46.909Z,1.60
2023-01-04T00:36:46.609Z,2.20
2023-01-04T00:37:52.103Z,1.60
2023-01-04T00:39:14.353Z,1.90
2023-01-04T00:40:19.310Z,1.90
2023-01-04T00:41:56.795Z,2.00
2023-01-04T00:42:25.941Z,1.80
2023-01-04T00:43:29.755Z,0.80
2023-01-04T00:44:33.538Z,2.00
2023-01-04T00:45:37.179Z,1.80
2023-01-04T00:46:40.684Z,1.80
2023-01-04T00:47:43.541Z,2.10
2023-01-04T00:48:48.936Z,1.90
2023-01-04T00:49:52.945Z,1.60
2023-01-04T00:50:55.970Z,2.20
2023-01-04T00:51:58.589Z,1.64
2023-01-04T00:53:01.191Z,1.91
2023-01-04T00:54:05.129Z,1.20
2023-01-04T00:55:10.726Z,2.30
2023-01-04T00:56:13.874Z,2.20
2023-01-04T00:57:16.448Z,2.40
2023-01-04T00:58:18.966Z,1.30
2023-01-04T00:59:22.703Z,2.60
2023-01-04T01:00:26.039Z,1.90
2023-01-04T01:01:31.188Z,1.30
2023-01-04T01:02:35.056Z,2.00
2023-01-04T01:03:39.039Z,2.20
2023-01-04T01:04:43.101Z,2.10
2023-01-04T01:05:46.508Z,1.30
2023-01-04T01:06:49.417Z,1.90
2023-01-04T01:07:52.043Z,1.82
2023-01-04T01:08:55.853Z,1.80
2023-01-04T01:09:59.373Z,1.30
2023-01-04T01:12:16.869Z,1.70
2023-01-04T01:13:21.457Z,2.80
2023-01-04T01:14:25.683Z,1.20
2023-01-04T01:15:28.337Z,0.80
2023-01-04T01:16:53.652Z,1.90
2023-01-04T01:17:36.330Z,1.20
2023-01-04T01:18:40.766Z,1.30
2023-01-04T01:19:43.218Z,1.30
2023-01-04T01:20:47.121Z,1.70
2023-01-04T01:21:49.679Z,1.10
2023-01-04T01:22:52.094Z,1.30
2023-01-04T01:23:55.106Z,1.30
2023-01-04T01:24:57.658Z,1.50
2023-01-04T01:26:02.023Z,1.40
2023-01-04T01:27:04.848Z,1.50
2023-01-04T01:28:08.177Z,1.27
2023-01-04T01:29:10.734Z,1.20
2023-01-04T01:30:13.902Z,1.10
2023-01-04T01:32:31.524Z,1.40
2023-01-04T01:33:37.284Z,2.10
2023-01-04T01:34:40.019Z,0.90
2023-01-04T01:35:42.483Z,2.09
2023-01-04T01:36:45.534Z,1.40
2023-01-04T01:37:47.898Z,1.36
2023-01-04T01:38:50.974Z,1.20
2023-01-04T01:39:53.530Z,1.10
2023-01-04T01:40:56.305Z,0.90
2023-01-04T01:41:59.160Z,2.00
2023-01-04T01:43:02.556Z,1.50
2023-01-04T01:44:44.594Z,2.18
2023-01-04T01:45:49.107Z,0.80
2023-01-04T01:46:53.114Z,0.50
2023-01-04T01:48:07.460Z,1.50
2023-01-04T01:50:36.455Z,1.50
2023-01-04T01:51:38.769Z,1.00
2023-01-04T01:52:41.005Z,1.30
2023-01-04T01:53:45.693Z,1.00
2023-01-04T01:54:53.866Z,0.50
2023-01-04T01:55:56.434Z,1.20
2023-01-04T01:56:59.837Z,1.50
2023-01-04T01:58:03.401Z,1.60
2023-01-04T01:59:05.995Z,1.50
2023-01-04T02:00:12.724Z,1.90
2023-01-04T02:01:18.381Z,0.80
2023-01-04T02:02:21.122Z,1.45
2023-01-04T02:03:26.630Z,0.91
2023-01-04T02:04:29.206Z,1.00
2023-01-04T02:05:32.556Z,1.70
2023-01-04T02:06:40.884Z,1.80
2023-01-04T02:07:43.227Z,0.90
2023-01-04T02:08:46.410Z,1.00
2023-01-04T02:09:49.208Z,1.30
2023-01-04T02:10:52.168Z,1.40
2023-01-04T02:11:57.105Z,1.20
2023-01-04T02:13:01.821Z,0.80
2023-01-04T02:14:23.389Z,0.50
2023-01-04T02:15:26.987Z,1.00
2023-01-04T02:16:51.102Z,1.90
2023-01-04T02:17:59.999Z,0.90
2023-01-04T02:19:08.935Z,0.80
2023-01-04T02:22:00.176Z,0.00
2023-01-04T02:24:58.545Z,1.00
2023-01-04T02:26:30.546Z,1.20
2023-01-04T02:27:59.081Z,0.90
2023-01-04T02:29:32.889Z,1.60
2023-01-04T02:30:57.425Z,1.10
2023-01-04T02:32:03.696Z,1.00
2023-01-04T02:33:12.608Z,1.30
2023-01-04T02:34:58.308Z,1.00
2023-01-04T02:36:12.271Z,0.60
2023-01-04T02:37:21.670Z,1.00
2023-01-04T02:40:00.369Z,0.70
2023-01-04T02:43:00.629Z,0.60
2023-01-04T02:44:28.276Z,0.80
2023-01-04T02:45:35.731Z,1.10
2023-01-04T02:48:14.017Z,1.10
2023-01-04T02:49:34.700Z,0.70
2023-01-04T02:50:52.221Z,0.70
2023-01-04T02:51:54.735Z,0.80
2023-01-04T02:53:09.945Z,0.70
2023-01-04T02:55:48.311Z,0.80
2023-01-04T02:58:32.843Z,0.60
2023-01-04T03:00:08.288Z,0.80
2023-01-04T03:01:38.972Z,1.10
2023-01-04T03:03:28.338Z,0.90
2023-01-04T03:05:26.273Z,1.00
2023-01-04T03:06:32.528Z,0.60
2023-01-04T03:09:06.806Z,1.00
2023-01-04T03:10:16.416Z,0.50
2023-01-04T03:11:37.667Z,1.00
2023-01-04T03:12:44.287Z,1.00
2023-01-04T03:13:47.249Z,0.70
2023-01-04T03:16:27.775Z,0.00
2023-01-04T03:17:33.977Z,0.70
2023-01-04T03:18:39.930Z,0.20
2023-01-04T03:19:51.300Z,1.30
2023-01-04T03:20:55.349Z,1.00
2023-01-04T03:21:57.891Z,0.50
2023-01-04T03:23:26.948Z,1.40
2023-01-04T03:24:48.861Z,0.90
2023-01-04T03:26:17.890Z,1.00
2023-01-04T03:27:39.242Z,0.50
2023-01-04T03:29:00.274Z,1.20
2023-01-04T03:30:26.714Z,1.00
2023-01-04T03:31:56.578Z,0.90
2023-01-04T03:33:23.421Z,0.90
2023-01-04T03:34:45.770Z,0.90
2023-01-04T03:36:10.400Z,0.60
2023-01-04T03:37:16.677Z,0.00
2023-01-04T03:38:58.165Z,1.00
2023-01-04T03:40:28.653Z,0.80
2023-01-04T03:42:05.270Z,0.20
2023-01-04T03:43:30.785Z,0.70
2023-01-04T03:44:55.267Z,0.00
2023-01-04T03:46:20.070Z,0.00
2023-01-04T03:47:44.976Z,0.90
2023-01-04T03:49:00.614Z,0.70
2023-01-04T03:50:06.255Z,0.80
2023-01-04T03:51:21.387Z,1.00
2023-01-04T03:52:27.510Z,0.50
2023-01-04T03:53:30.573Z,0.40
2023-01-04T03:54:36.286Z,0.50
2023-01-04T03:55:38.745Z,0.80
2023-01-04T03:56:42.427Z,0.90
2023-01-04T03:57:45.492Z,0.00
2023-01-04T03:58:49.344Z,1.00
2023-01-04T03:59:54.027Z,0.50
2023-01-04T04:00:58.843Z,0.60
2023-01-04T04:02:02.237Z,0.50
2023-01-04T04:03:06.712Z,1.40
2023-01-04T04:04:28.835Z,1.10
2023-01-04T04:05:49.659Z,0.90
2023-01-04T04:07:10.571Z,1.60
2023-01-04T04:08:31.053Z,1.50
2023-01-04T04:09:33.525Z,1.70
2023-01-04T04:10:36.626Z,2.50
2023-01-04T04:11:39.068Z,1.80
2023-01-04T04:12:41.516Z,0.00
2023-01-04T04:13:47.666Z,2.60
2023-01-04T04:14:50.708Z,1.70
2023-01-04T04:15:53.416Z,2.50
2023-01-04T04:16:57.370Z,3.10
2023-01-04T04:18:00.984Z,2.50
2023-01-04T04:19:08.490Z,2.00
2023-01-04T04:20:11.003Z,2.00
2023-01-04T04:21:14.935Z,3.00
2023-01-04T04:22:19.562Z,2.40
2023-01-04T04:23:22.077Z,2.20
2023-01-04T04:24:25.528Z,2.30
2023-01-04T04:25:27.893Z,2.30
2023-01-04T04:26:30.441Z,2.50
2023-01-04T04:27:32.889Z,2.60
2023-01-04T04:28:36.250Z,3.00
2023-01-04T04:29:39.091Z,3.00
2023-01-04T04:30:41.757Z,3.09
2023-01-04T04:31:45.150Z,3.90
2023-01-04T04:32:48.752Z,2.70
2023-01-04T04:33:51.436Z,2.80
2023-01-04T04:34:53.998Z,3.91
2023-01-04T04:35:56.991Z,2.90
2023-01-04T04:36:59.732Z,2.30
2023-01-04T04:38:02.053Z,2.10
2023-01-04T04:39:04.686Z,2.40
2023-01-04T04:40:11.322Z,3.00
2023-01-04T04:41:33.846Z,3.20
2023-01-04T04:42:36.369Z,3.10
2023-01-04T04:43:38.772Z,2.80
2023-01-04T04:44:41.587Z,3.40
2023-01-04T04:45:44.012Z,3.40
2023-01-04T04:46:47.809Z,2.40
2023-01-04T04:47:50.385Z,2.60
2023-01-04T04:48:52.824Z,2.60
2023-01-04T04:49:55.236Z,2.00
2023-01-04T04:50:58.448Z,3.10
2023-01-04T04:52:00.893Z,2.70
2023-01-04T04:53:03.437Z,2.60
2023-01-04T04:54:06.897Z,3.00
2023-01-04T04:55:09.592Z,2.00
2023-01-04T04:56:12.742Z,2.50
2023-01-04T04:57:15.156Z,2.20
2023-01-04T04:58:18.769Z,1.90
2023-01-04T04:59:21.220Z,1.90
2023-01-04T05:00:24.385Z,2.50
2023-01-04T05:01:27.825Z,2.00
2023-01-04T05:02:31.744Z,2.50
2023-01-04T05:03:34.565Z,2.00
2023-01-04T05:04:37.152Z,2.50
2023-01-04T05:05:39.532Z,1.40
2023-01-04T05:06:43.465Z,2.20
2023-01-04T05:07:46.636Z,2.80
2023-01-04T05:08:50.054Z,2.70
2023-01-04T05:09:52.263Z,2.30
2023-01-04T05:10:55.334Z,2.30
2023-01-04T05:12:16.563Z,1.90
2023-01-04T05:13:18.914Z,2.10
2023-01-04T05:14:21.301Z,2.00
2023-01-04T05:15:23.507Z,2.50
2023-01-04T05:16:26.063Z,2.50
2023-01-04T05:17:28.499Z,2.20
2023-01-04T05:18:31.665Z,1.10
2023-01-04T05:19:34.218Z,1.80
2023-01-04T05:20:36.738Z,1.50
2023-01-04T05:21:40.368Z,2.00
2023-01-04T05:22:43.947Z,1.60
2023-01-04T05:23:46.346Z,2.00
2023-01-04T05:24:48.743Z,1.40
2023-01-04T05:27:04.942Z,0.50
2023-01-04T05:28:07.673Z,1.70
2023-01-04T05:29:11.742Z,1.70
2023-01-04T05:30:33.445Z,2.60
2023-01-04T05:31:37.829Z,3.40
2023-01-04T05:32:40.500Z,6.90
2023-01-04T05:33:43.480Z,7.80
2023-01-04T05:34:46.627Z,6.40
2023-01-04T05:35:50.353Z,5.60
2023-01-04T05:36:53.042Z,5.00
2023-01-04T05:37:56.975Z,4.50
2023-01-04T05:38:59.356Z,4.80
2023-01-04T05:40:03.279Z,3.70
2023-01-04T05:41:07.427Z,5.30
2023-01-04T05:42:24.808Z,5.10
2023-01-04T05:43:27.162Z,4.00
2023-01-04T05:44:29.572Z,4.30
2023-01-04T05:45:32.263Z,4.60
2023-01-04T05:46:34.961Z,4.20
2023-01-04T05:47:37.621Z,1.91
2023-01-04T05:48:40.369Z,4.18
2023-01-04T05:49:43.656Z,3.50
2023-01-04T05:50:46.809Z,3.70
2023-01-04T05:51:49.509Z,4.00
2023-01-04T05:52:53.906Z,4.20
2023-01-04T05:53:59.166Z,4.40
2023-01-04T05:55:03.047Z,4.80
2023-01-04T05:56:06.505Z,4.00
2023-01-04T05:57:08.972Z,4.40
2023-01-04T05:58:11.699Z,4.40
2023-01-04T05:59:14.646Z,3.90
2023-01-04T06:00:18.871Z,3.40
2023-01-04T06:01:21.421Z,0.90
2023-01-04T06:02:26.800Z,4.20
2023-01-04T06:03:31.046Z,4.00
2023-01-04T06:04:34.714Z,3.40
2023-01-04T06:05:38.093Z,3.60
2023-01-04T06:06:41.794Z,4.40
2023-01-04T06:07:44.351Z,2.90
2023-01-04T06:08:46.568Z,4.20
2023-01-04T06:09:49.596Z,3.90
2023-01-04T06:10:53.767Z,3.90
2023-01-04T06:11:57.124Z,2.70
2023-01-04T06:12:59.691Z,4.60
2023-01-04T06:14:03.460Z,3.70
2023-01-04T06:15:07.093Z,3.73
2023-01-04T06:16:11.634Z,3.80
2023-01-04T06:17:14.229Z,3.70
2023-01-04T06:18:17.346Z,4.40
2023-01-04T06:19:19.990Z,4.30
2023-01-04T06:20:24.008Z,3.30
2023-01-04T06:21:26.701Z,3.30
2023-01-04T06:22:29.154Z,3.70
2023-01-04T06:23:31.591Z,3.40
2023-01-04T06:24:34.425Z,2.40
2023-01-04T06:25:37.318Z,4.09
2023-01-04T06:26:40.387Z,2.20
2023-01-04T06:27:42.854Z,4.50
2023-01-04T06:28:46.522Z,3.20
2023-01-04T06:29:49.615Z,2.90
2023-01-04T06:30:53.000Z,0.40
2023-01-04T06:31:56.626Z,3.40
2023-01-04T06:32:59.121Z,3.40
2023-01-04T06:34:01.775Z,3.00
2023-01-04T06:35:06.934Z,3.90
2023-01-04T06:36:19.313Z,1.90
2023-01-04T06:37:14.951Z,3.70
2023-01-04T06:38:17.556Z,3.55
2023-01-04T06:39:20.000Z,4.30
2023-01-04T06:40:23.169Z,3.50
2023-01-04T06:41:26.311Z,3.90
2023-01-04T06:42:43.961Z,3.80
2023-01-04T06:43:47.082Z,3.60
2023-01-04T06:44:50.274Z,4.10
2023-01-04T06:45:53.205Z,4.20
2023-01-04T06:46:56.025Z,3.40
2023-01-04T06:47:58.615Z,4.10
2023-01-04T06:49:01.559Z,4.10
2023-01-04T06:50:06.580Z,4.50
2023-01-04T06:51:09.350Z,3.40
2023-01-04T06:52:12.197Z,3.00
2023-01-04T06:53:15.212Z,4.18
2023-01-04T06:54:17.899Z,3.10
2023-01-04T06:55:20.235Z,3.80
2023-01-04T06:56:24.323Z,1.60
2023-01-04T06:57:27.359Z,4.00
2023-01-04T06:58:29.808Z,2.80
2023-01-04T06:59:33.416Z,3.40
2023-01-04T07:00:35.986Z,3.18
2023-01-04T07:01:39.516Z,4.70
2023-01-04T07:03:14.598Z,3.00
2023-01-04T07:03:47.290Z,3.90
2023-01-04T07:04:50.821Z,4.50
2023-01-04T07:05:53.458Z,2.80
2023-01-04T07:06:57.151Z,3.50
2023-01-04T07:08:07.424Z,3.60
2023-01-04T07:09:05.210Z,4.10
2023-01-04T07:10:10.080Z,3.40
2023-01-04T07:11:13.071Z,3.20
2023-01-04T07:12:15.519Z,4.91
2023-01-04T07:13:18.696Z,3.90
2023-01-04T07:14:21.045Z,3.40
2023-01-04T07:15:37.220Z,3.60
2023-01-04T07:16:28.528Z,3.50
2023-01-04T07:17:31.132Z,3.20
2023-01-04T07:18:34.053Z,3.00
2023-01-04T07:19:37.207Z,2.91
2023-01-04T07:20:40.016Z,3.70
2023-01-04T07:21:43.757Z,3.00
2023-01-04T07:22:46.900Z,3.40
2023-01-04T07:23:49.310Z,2.90
2023-01-04T07:24:51.703Z,3.20
2023-01-04T07:25:55.706Z,3.90
2023-01-04T07:27:01.035Z,3.50
2023-01-04T07:28:03.629Z,3.40
2023-01-04T07:29:15.079Z,3.30
2023-01-04T07:30:18.669Z,3.50
2023-01-04T07:31:21.601Z,3.00
2023-01-04T07:32:24.435Z,3.30
2023-01-04T07:33:27.437Z,3.70
2023-01-04T07:34:30.887Z,3.90
2023-01-04T07:35:34.074Z,3.50
2023-01-04T07:36:36.716Z,1.20
2023-01-04T07:37:39.037Z,3.30
2023-01-04T07:38:43.502Z,3.27
2023-01-04T07:39:48.581Z,3.50
2023-01-04T07:40:56.002Z,2.50
2023-01-04T07:42:00.284Z,3.40
2023-01-04T07:43:04.694Z,3.50
2023-01-04T07:44:08.481Z,4.00
2023-01-04T07:45:11.272Z,3.40
2023-01-04T07:46:14.383Z,3.30
2023-01-04T07:47:16.776Z,3.10
2023-01-04T07:48:19.734Z,3.80
2023-01-04T07:49:22.905Z,3.50
2023-01-04T07:50:25.515Z,3.20
2023-01-04T07:51:29.698Z,3.82
2023-01-04T07:52:33.210Z,3.50
2023-01-04T07:53:35.742Z,3.70
2023-01-04T07:54:40.090Z,2.60
2023-01-04T07:55:43.547Z,3.90
2023-01-04T07:56:47.313Z,3.30
2023-01-04T07:57:53.326Z,2.60
2023-01-04T07:58:57.703Z,2.70
2023-01-04T08:00:00.797Z,4.20
2023-01-04T08:01:11.490Z,4.30
2023-01-04T08:02:14.464Z,3.90
2023-01-04T08:03:17.109Z,3.70
2023-01-04T08:04:22.562Z,3.70
2023-01-04T08:05:25.534Z,3.70
2023-01-04T08:06:28.299Z,2.40
2023-01-04T08:07:31.435Z,3.20
2023-01-04T08:08:34.969Z,3.90
2023-01-04T08:09:38.546Z,3.40
2023-01-04T08:10:41.277Z,3.70
2023-01-04T08:11:46.143Z,2.80
2023-01-04T08:12:49.321Z,3.30
2023-01-04T08:13:51.747Z,3.50
2023-01-04T08:14:54.189Z,1.50
2023-01-04T08:15:57.589Z,3.00
2023-01-04T08:17:00.987Z,3.30
2023-01-04T08:18:03.502Z,3.90
2023-01-04T08:20:23.726Z,2.70
2023-01-04T08:21:27.475Z,3.10
2023-01-04T08:22:29.993Z,3.40
2023-01-04T08:23:32.215Z,3.80
2023-01-04T08:24:34.615Z,2.60
2023-01-04T08:25:37.004Z,2.90
2023-01-04T08:26:40.120Z,3.20
2023-01-04T08:27:43.041Z,2.91
2023-01-04T08:28:45.359Z,2.40
2023-01-04T08:29:48.493Z,2.80
2023-01-04T08:30:51.718Z,1.80
2023-01-04T08:31:54.297Z,2.60
2023-01-04T08:32:56.757Z,2.60
2023-01-04T08:34:01.802Z,1.90
2023-01-04T08:35:05.698Z,2.90
2023-01-04T08:36:26.754Z,3.10
2023-01-04T08:37:26.418Z,3.10
2023-01-04T08:38:58.603Z,2.80
2023-01-04T08:39:35.535Z,3.10
2023-01-04T08:40:58.672Z,3.10
2023-01-04T08:42:59.107Z,2.70
2023-01-04T08:44:02.787Z,2.80
2023-01-04T08:45:07.230Z,2.50
2023-01-04T08:46:11.171Z,2.50
2023-01-04T08:47:14.092Z,3.00
2023-01-04T08:48:22.620Z,3.80
2023-01-04T08:49:22.509Z,3.90
2023-01-04T08:50:25.059Z,4.90
2023-01-04T08:51:30.071Z,3.50
2023-01-04T08:52:32.430Z,3.40
2023-01-04T08:53:34.819Z,3.40
2023-01-04T08:54:37.528Z,3.90
2023-01-04T08:55:42.032Z,3.27
2023-01-04T08:56:45.173Z,3.20
2023-01-04T08:57:47.613Z,3.36
2023-01-04T08:58:51.447Z,3.82
2023-01-04T08:59:53.832Z,4.30
2023-01-04T09:02:24.822Z,2.80
2023-01-04T09:03:28.292Z,3.20
2023-01-04T09:04:30.690Z,2.30
2023-01-04T09:05:33.667Z,3.00
2023-01-04T09:06:39.347Z,3.10
2023-01-04T09:07:43.010Z,3.30
2023-01-04T09:08:46.274Z,3.40
2023-01-04T09:09:48.698Z,2.90
2023-01-04T09:10:51.197Z,4.00
2023-01-04T09:11:53.598Z,3.60
2023-01-04T09:12:56.350Z,3.00
2023-01-04T09:14:06.782Z,2.73
2023-01-04T09:15:05.793Z,3.90
2023-01-04T09:16:13.177Z,4.00
2023-01-04T09:17:17.550Z,3.40
2023-01-04T09:18:31.833Z,3.20
2023-01-04T09:19:27.627Z,3.50
2023-01-04T09:20:30.244Z,3.10
2023-01-04T09:21:33.804Z,3.40
2023-01-04T09:22:36.560Z,3.40
2023-01-04T09:23:39.824Z,3.70
2023-01-04T09:24:43.359Z,3.70
2023-01-04T09:25:45.847Z,3.30
2023-01-04T09:26:49.495Z,3.20
2023-01-04T09:27:52.233Z,3.20
2023-01-04T09:28:56.044Z,3.30
2023-01-04T09:29:59.195Z,2.40
2023-01-04T09:31:14.151Z,2.90
2023-01-04T09:32:17.157Z,3.00
2023-01-04T09:33:19.858Z,3.00
2023-01-04T09:34:23.818Z,3.09
2023-01-04T09:35:26.215Z,2.50
2023-01-04T09:36:29.563Z,3.20
2023-01-04T09:37:33.402Z,3.70
2023-01-04T09:38:36.775Z,3.10
2023-01-04T09:39:40.428Z,3.00
2023-01-04T09:42:24.282Z,4.00
2023-01-04T09:43:27.896Z,3.70
2023-01-04T09:45:23.077Z,3.00
2023-01-04T09:45:53.825Z,2.70
2023-01-04T09:46:59.680Z,2.80
2023-01-04T09:48:09.064Z,2.80
2023-01-04T09:49:26.800Z,3.00
2023-01-04T09:50:37.150Z,2.90
2023-01-04T09:51:42.836Z,3.20
2023-01-04T09:53:04.579Z,3.00
2023-01-04T09:54:16.543Z,3.40
2023-01-04T09:56:37.711Z,3.10
2023-01-04T09:57:43.865Z,4.20
2023-01-04T09:58:46.300Z,3.10
2023-01-04T09:59:49.636Z,3.80
2023-01-04T10:01:05.040Z,3.40
2023-01-04T10:02:12.419Z,3.30
2023-01-04T10:04:45.824Z,2.70
2023-01-04T10:05:48.350Z,3.90
2023-01-04T10:06:53.243Z,3.10
2023-01-04T10:07:55.724Z,3.60
2023-01-04T10:09:00.513Z,2.90
2023-01-04T10:10:04.163Z,3.30
2023-01-04T10:11:26.590Z,3.00
2023-01-04T10:12:45.184Z,3.10
2023-01-04T10:14:11.226Z,4.80
2023-01-04T10:15:21.563Z,3.90
2023-01-04T10:23:42.227Z,3.60
2023-01-04T10:25:13.135Z,3.90
2023-01-04T10:26:17.638Z,3.80
2023-01-04T10:27:43.606Z,3.80
2023-01-04T10:28:53.129Z,4.10
2023-01-04T10:30:06.518Z,3.50
2023-01-04T10:31:39.829Z,4.70
2023-01-04T10:34:08.233Z,3.50
2023-01-04T10:35:25.582Z,3.30
2023-01-04T10:36:30.836Z,4.00
2023-01-04T10:37:35.217Z,3.80
2023-01-04T10:38:39.455Z,4.00
2023-01-04T10:39:43.199Z,5.30
2023-01-04T10:40:47.520Z,5.90
2023-01-04T10:41:58.036Z,4.50
2023-01-04T10:43:04.056Z,6.10
2023-01-04T10:44:29.007Z,4.90
2023-01-04T10:45:41.036Z,5.30
2023-01-04T10:47:11.460Z,3.40
2023-01-04T10:48:39.123Z,5.00
2023-01-04T10:49:53.143Z,4.20
2023-01-04T10:51:03.566Z,4.30
2023-01-04T10:52:09.465Z,3.80
2023-01-04T10:53:19.257Z,4.00
2023-01-04T10:54:39.326Z,1.80
2023-01-04T10:56:23.591Z,3.10
2023-01-04T10:57:08.464Z,3.90
2023-01-04T10:58:14.812Z,3.70
2023-01-04T10:59:24.230Z,4.00
2023-01-04T11:03:28.275Z,3.10
2023-01-04T11:05:52.702Z,2.60
2023-01-04T11:10:28.699Z,3.80
2023-01-04T11:11:42.183Z,4.50
2023-01-04T11:12:45.890Z,6.10
2023-01-04T11:13:49.957Z,5.50
2023-01-04T11:14:53.611Z,5.30
2023-01-04T11:15:56.149Z,7.80
2023-01-04T11:17:02.059Z,7.20
2023-01-04T11:18:05.568Z,13.50
2023-01-04T11:19:09.224Z,19.40
2023-01-04T11:20:14.063Z,22.40
2023-01-04T11:21:17.176Z,27.50
2023-01-04T11:22:25.841Z,28.80
2023-01-04T11:23:28.663Z,28.30
2023-01-04T11:24:32.905Z,34.50
2023-01-04T11:25:39.077Z,34.40
2023-01-04T11:26:43.176Z,27.00
2023-01-04T11:28:01.087Z,31.70
2023-01-04T11:29:09.042Z,31.40
2023-01-04T11:30:21.704Z,34.50
2023-01-04T11:31:33.602Z,29.60
2023-01-04T11:32:48.907Z,29.80
2023-01-04T11:34:01.004Z,29.80
2023-01-04T11:35:04.493Z,29.70
2023-01-04T11:36:08.746Z,27.80
2023-01-04T11:38:50.477Z,26.20
2023-01-04T11:41:15.951Z,23.90
2023-01-04T11:42:20.766Z,26.10
2023-01-04T11:43:23.514Z,25.40
2023-01-04T11:44:26.917Z,27.50
2023-01-04T11:45:30.138Z,25.70
2023-01-04T11:46:33.960Z,24.20
2023-01-04T11:47:40.167Z,24.10
2023-01-04T11:48:44.359Z,27.40
2023-01-04T11:49:46.917Z,21.70
2023-01-04T11:50:51.335Z,23.60
2023-01-04T11:51:54.776Z,25.00
2023-01-04T11:52:57.298Z,23.60
2023-01-04T11:54:15.990Z,21.50
2023-01-04T11:55:26.377Z,23.40
2023-01-04T11:57:48.226Z,22.10
2023-01-04T11:59:24.969Z,22.40
2023-01-04T12:00:22.725Z,24.00
2023-01-04T12:01:27.143Z,19.20
2023-01-04T12:03:37.954Z,15.20
2023-01-04T12:04:41.280Z,19.20
2023-01-04T12:05:46.022Z,17.70
2023-01-04T12:06:57.539Z,17.50
2023-01-04T12:08:00.023Z,15.60
2023-01-04T12:09:02.969Z,16.90
2023-01-04T12:10:22.759Z,14.60
2023-01-04T12:11:29.743Z,15.30
2023-01-04T12:12:33.199Z,14.80
2023-01-04T12:13:35.845Z,14.60
2023-01-04T12:14:39.904Z,13.10
2023-01-04T12:17:22.914Z,12.70
2023-01-04T12:18:29.014Z,14.00
2023-01-04T12:19:31.594Z,13.80
2023-01-04T12:20:34.557Z,13.73
2023-01-04T12:21:37.116Z,13.73
2023-01-04T12:22:39.916Z,13.40
2023-01-04T12:23:43.285Z,15.10
2023-01-04T12:24:46.631Z,12.20
2023-01-04T12:25:50.980Z,13.00
2023-01-04T12:26:54.777Z,13.00
2023-01-04T12:27:57.782Z,11.55
2023-01-04T12:29:24.002Z,10.20
2023-01-04T12:30:43.367Z,13.00
2023-01-04T12:31:47.363Z,11.20
2023-01-04T12:32:50.299Z,11.80
2023-01-04T12:33:55.502Z,11.30
2023-01-04T12:34:58.142Z,10.90
2023-01-04T12:36:11.414Z,5.80
2023-01-04T12:37:43.200Z,10.50
2023-01-04T12:39:14.024Z,9.80
2023-01-04T12:40:47.325Z,9.50
2023-01-04T12:42:04.602Z,7.30
2023-01-04T12:43:20.022Z,6.80
2023-01-04T12:44:49.484Z,6.30
2023-01-04T12:46:14.261Z,6.20
2023-01-04T12:47:48.228Z,5.60
2023-01-04T12:49:05.637Z,6.00
2023-01-04T12:50:17.529Z,4.70
2023-01-04T12:51:34.248Z,5.30
2023-01-04T12:52:48.383Z,6.60
2023-01-04T12:55:07.698Z,8.40
2023-01-04T12:56:10.520Z,8.80
2023-01-04T12:57:19.893Z,11.30
2023-01-04T13:00:07.772Z,12.50
2023-01-04T13:02:38.762Z,12.20
2023-01-04T13:03:45.655Z,11.40
2023-01-04T13:04:49.804Z,11.20
2023-01-04T13:06:00.955Z,13.30
2023-01-04T13:07:07.196Z,13.10
2023-01-04T13:08:12.131Z,12.50
2023-01-04T13:09:23.943Z,11.50
2023-01-04T13:10:35.880Z,12.90
2023-01-04T13:11:59.781Z,12.00
2023-01-04T13:13:28.739Z,12.10
2023-01-04T13:15:55.713Z,12.30
2023-01-04T13:17:14.036Z,13.60
2023-01-04T13:18:20.892Z,13.00
2023-01-04T13:19:25.268Z,13.40
2023-01-04T13:20:30.099Z,14.40
2023-01-04T13:21:40.368Z,12.70
2023-01-04T13:22:49.909Z,13.40
2023-01-04T13:23:54.722Z,12.80
2023-01-04T13:24:59.703Z,11.60
2023-01-04T13:26:30.157Z,12.50
2023-01-04T13:27:35.552Z,12.20
2023-01-04T13:28:37.967Z,11.70
2023-01-04T13:29:41.231Z,10.60
2023-01-04T13:30:45.073Z,10.10
2023-01-04T13:32:01.539Z,4.70
2023-01-04T13:34:37.189Z,7.00
2023-01-04T13:35:41.406Z,7.60
2023-01-04T13:36:44.493Z,6.40
2023-01-04T13:37:47.876Z,6.50
2023-01-04T13:38:50.401Z,7.50
2023-01-04T13:40:13.104Z,7.00
2023-01-04T13:41:20.722Z,6.30
2023-01-04T13:42:32.756Z,5.10
2023-01-04T13:45:30.601Z,5.80
2023-01-04T13:46:33.425Z,7.10
2023-01-04T13:47:37.211Z,6.10
2023-01-04T13:48:41.783Z,6.50
2023-01-04T13:49:45.494Z,7.80
2023-01-04T15:54:58.679Z,5.40
2023-01-04T15:56:08.946Z,6.00
2023-01-04T15:57:13.288Z,6.00
2023-01-04T15:58:17.701Z,6.90
2023-01-04T15:59:20.381Z,6.30
2023-01-04T16:00:23.496Z,5.80
2023-01-04T16:01:26.369Z,6.30
2023-01-04T16:02:29.034Z,6.73
2023-01-04T16:03:35.161Z,6.00
2023-01-04T16:04:37.892Z,5.90
2023-01-04T16:05:41.784Z,5.18
2023-01-04T16:06:44.670Z,6.40
2023-01-04T16:07:47.939Z,4.50
2023-01-04T16:08:52.289Z,6.20
2023-01-04T16:09:55.546Z,5.80
2023-01-04T16:15:28.281Z,5.20
2023-01-04T16:16:33.128Z,5.60
2023-01-04T16:17:35.986Z,4.30
2023-01-04T16:18:38.851Z,4.10
2023-01-04T16:19:41.659Z,4.60
2023-01-04T16:20:44.723Z,4.80
2023-01-04T16:21:47.719Z,4.18
2023-01-04T16:22:50.373Z,4.40
2023-01-04T16:24:00.285Z,4.73
2023-01-04T16:25:10.249Z,4.90
2023-01-04T16:27:19.481Z,4.60
2023-01-04T16:28:22.784Z,4.45
2023-01-04T16:29:27.112Z,3.90
2023-01-04T16:30:32.131Z,5.50
2023-01-04T16:31:37.258Z,4.90
2023-01-04T16:32:42.080Z,4.00
2023-01-04T16:33:46.941Z,4.10
2023-01-04T16:34:50.321Z,5.50
2023-01-04T16:36:07.801Z,4.00
2023-01-04T16:37:11.045Z,5.60
2023-01-04T16:38:13.387Z,4.50
2023-01-04T16:39:17.438Z,6.00
2023-01-04T16:40:20.497Z,5.80
2023-01-04T16:41:24.925Z,4.60
2023-01-04T16:42:27.767Z,4.70
2023-01-04T16:43:30.737Z,5.55
2023-01-04T16:44:34.259Z,5.91
2023-01-04T16:45:36.662Z,5.80
2023-01-04T16:46:39.875Z,5.36
2023-01-04T16:47:42.796Z,5.73
2023-01-04T16:48:46.995Z,3.09
2023-01-04T16:49:52.584Z,6.10
2023-01-04T16:50:55.132Z,6.70
2023-01-04T16:51:58.481Z,6.40
2023-01-04T16:53:01.448Z,6.10
2023-01-04T16:54:07.942Z,6.27
2023-01-04T16:55:10.792Z,5.10
2023-01-04T16:56:16.030Z,6.10
2023-01-04T16:57:19.172Z,6.30
2023-01-04T16:58:22.514Z,6.30
2023-01-04T16:59:25.967Z,6.90
2023-01-04T17:00:29.139Z,7.20
2023-01-04T17:01:33.044Z,6.50
2023-01-04T17:02:36.235Z,6.40
2023-01-04T17:03:40.660Z,7.90
2023-01-04T17:04:43.094Z,7.10
2023-01-04T17:05:45.381Z,6.50
2023-01-04T17:06:47.943Z,8.90
2023-01-04T17:07:50.147Z,9.20
2023-01-04T17:08:54.504Z,11.30
2023-01-04T17:09:57.655Z,11.10
2023-01-04T17:11:42.342Z,12.60
2023-01-04T17:13:15.672Z,10.80
2023-01-04T17:14:19.127Z,11.10
2023-01-04T17:15:42.600Z,10.90
2023-01-04T17:16:34.240Z,8.90
2023-01-04T17:17:32.727Z,10.30
2023-01-04T17:18:36.474Z,10.90
2023-01-04T17:19:39.017Z,10.00
2023-01-04T17:20:42.664Z,11.90
2023-01-04T17:21:45.311Z,6.70
2023-01-04T17:22:48.136Z,10.00
2023-01-04T17:23:51.865Z,11.27
2023-01-04T17:24:55.040Z,9.20
2023-01-04T17:26:03.578Z,10.30
2023-01-04T17:27:07.337Z,9.80
2023-01-04T17:28:09.837Z,11.40
2023-01-04T17:29:13.974Z,10.90
2023-01-04T17:30:17.770Z,11.00
2023-01-04T17:32:35.791Z,10.50
2023-01-04T17:33:38.898Z,10.60
2023-01-04T17:34:41.488Z,11.60
2023-01-04T17:35:45.869Z,11.10
2023-01-04T17:36:48.345Z,11.00
2023-01-04T17:37:51.113Z,11.00
2023-01-04T17:38:54.127Z,10.40
2023-01-04T17:39:57.878Z,10.90
2023-01-04T17:41:20.194Z,11.30
2023-01-04T17:42:23.544Z,11.20
2023-01-04T17:43:25.886Z,10.80
2023-01-04T17:44:28.248Z,10.70
2023-01-04T17:45:34.380Z,11.70
2023-01-04T17:46:37.907Z,11.40
2023-01-04T17:47:41.733Z,11.70
2023-01-04T17:48:45.361Z,12.50
2023-01-04T17:49:47.712Z,11.70
2023-01-04T17:50:50.229Z,11.80
2023-01-04T17:51:53.942Z,11.20
2023-01-04T17:52:57.630Z,10.30